createdAt,value
2022-09-07T00:00:54.605Z,100157.50
2022-09-07T00:03:23.562Z,100144.94
2022-09-07T00:05:52.436Z,100146.22
2022-09-07T00:08:21.985Z,100140.16
2022-09-07T00:10:57.762Z,100159.59
2022-09-07T00:13:26.472Z,100150.56
2022-09-07T00:15:55.757Z,100138.75
2022-09-07T00:18:23.458Z,100136.38
2022-09-07T00:21:03.187Z,100134.72
2022-09-07T00:23:32.268Z,100132.88
2022-09-07T00:26:07.602Z,100132.09
2022-09-07T00:28:36.034Z,100130.25
2022-09-07T00:31:05.435Z,100126.06
2022-09-07T00:33:32.790Z,100121.00
2022-09-07T00:36:00.734Z,100128.34
2022-09-07T00:38:29.774Z,100128.34
2022-09-07T00:40:58.704Z,100130.22
2022-09-07T00:43:36.848Z,100129.41
2022-09-07T00:46:05.156Z,100126.81
2022-09-07T00:48:59.155Z,100125.69
2022-09-07T00:51:39.453Z,100127.97
2022-09-07T00:54:09.252Z,100131.63
2022-09-07T00:56:38.414Z,100127.19
2022-09-07T00:59:07.142Z,100124.56
2022-09-07T01:01:34.613Z,100121.94
2022-09-07T01:04:02.538Z,100111.38
2022-09-07T01:06:32.773Z,100114.56
2022-09-07T01:09:01.507Z,100118.50
2022-09-07T01:11:30.982Z,100129.44
2022-09-07T01:13:58.721Z,100121.31
2022-09-07T01:16:44.296Z,100122.84
2022-09-07T01:19:26.954Z,100110.22
2022-09-07T01:22:13.021Z,100113.91
2022-09-07T01:24:46.305Z,100107.50
2022-09-07T01:27:32.423Z,100110.91
2022-09-07T01:30:03.498Z,100118.50
2022-09-07T01:32:41.453Z,100111.13
2022-09-07T01:35:16.622Z,100115.22
2022-09-07T01:37:52.885Z,100110.31
2022-09-07T01:40:25.420Z,100107.69
2022-09-07T01:42:58.542Z,100102.59
2022-09-07T01:45:31.346Z,100109.44
2022-09-07T01:48:00.626Z,100095.75
2022-09-07T01:50:31.062Z,100102.06
2022-09-07T01:52:59.538Z,100099.97
2022-09-07T01:55:35.989Z,100104.69
2022-09-07T01:58:06.659Z,100098.66
2022-09-07T02:00:34.840Z,100097.84
2022-09-07T02:03:05.375Z,100096.25
2022-09-07T02:05:40.582Z,100094.13
2022-09-07T02:08:24.766Z,100095.69
2022-09-07T02:10:55.549Z,100100.47
2022-09-07T02:13:22.678Z,100098.09
2022-09-07T02:15:53.556Z,100088.88
2022-09-07T02:18:22.024Z,100085.00
2022-09-07T02:20:51.238Z,100093.06
2022-09-07T02:23:20.463Z,100091.72
2022-09-07T02:25:52.646Z,100096.72
2022-09-07T02:28:26.758Z,100100.38
2022-09-07T02:30:54.596Z,100094.59
2022-09-07T02:33:22.550Z,100091.97
2022-09-07T02:35:49.906Z,100088.31
2022-09-07T02:38:18.290Z,100091.97
2022-09-07T02:40:51.126Z,100100.72
2022-09-07T02:43:19.577Z,100096.34
2022-09-07T02:46:01.813Z,100093.06
2022-09-07T02:49:05.123Z,100091.03
2022-09-07T02:51:36.951Z,100093.72
2022-09-07T02:54:18.632Z,100087.09
2022-09-07T02:56:51.217Z,100089.44
2022-09-07T02:59:39.612Z,100091.03
2022-09-07T03:02:14.269Z,100078.72
2022-09-07T03:04:48.374Z,100082.13
2022-09-07T03:07:17.761Z,100087.81
2022-09-07T03:09:50.800Z,100079.75
2022-09-07T03:12:17.754Z,100088.59
2022-09-07T03:14:45.849Z,100091.50
2022-09-07T03:17:13.771Z,100079.94
2022-09-07T03:19:40.975Z,100081.00
2022-09-07T03:22:09.235Z,100075.44
2022-09-07T03:24:37.041Z,100081.00
2022-09-07T03:27:05.216Z,100072.28
2022-09-07T03:29:33.017Z,100072.03
2022-09-07T03:32:02.853Z,100079.34
2022-09-07T03:34:31.207Z,100076.72
2022-09-07T03:37:00.895Z,100070.94
2022-09-07T03:39:28.236Z,100071.94
2022-09-07T03:41:55.362Z,100070.94
2022-09-07T03:44:23.344Z,100072.53
2022-09-07T03:46:50.665Z,100076.22
2022-09-07T03:49:19.401Z,100071.13
2022-09-07T03:51:47.656Z,100071.72
2022-09-07T03:54:15.041Z,100070.13
2022-09-07T03:56:42.047Z,100070.69
2022-09-07T03:59:09.724Z,100069.91
2022-09-07T04:01:37.553Z,100070.13
2022-09-07T04:04:04.593Z,100071.13
2022-09-07T04:06:34.445Z,100074.56
2022-09-07T04:09:06.059Z,100081.41
2022-09-07T04:11:34.049Z,100080.28
2022-09-07T04:14:00.973Z,100071.94
2022-09-07T04:16:29.422Z,100074.34
2022-09-07T04:19:02.552Z,100073.47
2022-09-07T04:21:33.410Z,100076.06
2022-09-07T04:24:03.065Z,100076.06
2022-09-07T04:26:31.090Z,100084.25
2022-09-07T04:28:59.313Z,100094.50
2022-09-07T04:31:27.388Z,100080.28
2022-09-07T04:33:55.069Z,100086.41
2022-09-07T04:36:22.697Z,100087.81
2022-09-07T04:38:54.394Z,100086.19
2022-09-07T04:41:21.992Z,100087.09
2022-09-07T04:43:53.514Z,100085.78
2022-09-07T04:46:22.157Z,100085.00
2022-09-07T04:48:53.364Z,100088.97
2022-09-07T04:51:23.471Z,100091.38
2022-09-07T04:53:52.461Z,100089.66
2022-09-07T04:56:20.519Z,100083.75
2022-09-07T04:58:48.959Z,100092.72
2022-09-07T05:01:18.255Z,100091.59
2022-09-07T05:03:45.926Z,100087.97
2022-09-07T05:06:14.200Z,100085.31
2022-09-07T05:08:43.549Z,100090.69
2022-09-07T05:11:13.028Z,100087.59
2022-09-07T05:13:41.211Z,100094.72
2022-09-07T05:16:10.742Z,100093.31
2022-09-07T05:18:38.118Z,100096.03
2022-09-07T05:21:16.092Z,100090.75
2022-09-07T05:23:43.709Z,100097.31
2022-09-07T05:27:35.998Z,100088.16
2022-09-07T05:30:09.396Z,100097.97
2022-09-07T05:32:37.780Z,100104.03
2022-09-07T05:35:06.777Z,100100.34
2022-09-07T05:37:38.713Z,100102.03
2022-09-07T05:40:07.909Z,100107.53
2022-09-07T05:42:38.228Z,100106.88
2022-09-07T05:45:09.482Z,100100.66
2022-09-07T05:47:38.681Z,100115.28
2022-09-07T05:50:09.591Z,100111.88
2022-09-07T05:52:36.892Z,100103.91
2022-09-07T05:55:26.265Z,100121.72
2022-09-07T05:57:52.219Z,100123.81
2022-09-07T06:00:25.382Z,100119.84
2022-09-07T06:02:53.103Z,100122.56
2022-09-07T06:05:22.487Z,100121.56
2022-09-07T06:07:49.672Z,100127.16
2022-09-07T06:13:07.166Z,100137.25
2022-09-07T06:15:35.713Z,100135.50
2022-09-07T06:18:02.657Z,100134.69
2022-09-07T06:20:29.735Z,100136.06
2022-09-07T06:22:57.028Z,100129.97
2022-09-07T06:25:23.919Z,100131.47
2022-09-07T06:27:50.819Z,100133.13
2022-09-07T06:30:18.935Z,100128.59
2022-09-07T06:32:46.082Z,100129.94
2022-09-07T06:35:14.020Z,100119.75
2022-09-07T06:37:41.851Z,100128.91
2022-09-07T06:40:10.608Z,100123.84
2022-09-07T06:42:38.693Z,100126.16
2022-09-07T06:45:06.669Z,100129.19
2022-09-07T06:47:33.530Z,100116.75
2022-09-07T06:50:02.637Z,100128.44
2022-09-07T06:55:17.995Z,100118.63
2022-09-07T06:57:45.449Z,100121.16
2022-09-07T07:00:12.545Z,100128.69
2022-09-07T07:02:39.458Z,100118.31
2022-09-07T07:05:09.100Z,100133.72
2022-09-07T07:07:36.046Z,100143.16
2022-09-07T07:10:02.947Z,100136.09
2022-09-07T07:14:57.227Z,100139.13
2022-09-07T07:17:24.038Z,100141.59
2022-09-07T07:19:53.256Z,100134.13
2022-09-07T07:25:08.342Z,100148.09
2022-09-07T07:27:35.680Z,100140.31
2022-09-07T07:30:02.534Z,100148.28
2022-09-07T07:32:31.287Z,100147.09
2022-09-07T07:34:58.243Z,100148.13
2022-09-07T07:37:28.216Z,100141.75
2022-09-07T07:42:43.218Z,100154.47
2022-09-07T07:47:58.292Z,100149.06
2022-09-07T07:50:33.262Z,100153.84
2022-09-07T07:55:47.964Z,100146.41
2022-09-07T07:58:14.783Z,100145.16
2022-09-07T08:00:54.249Z,100140.13
2022-09-07T08:03:23.230Z,100138.53
2022-09-07T08:05:50.333Z,100144.66
2022-09-07T08:08:17.390Z,100147.44
2022-09-07T08:10:46.222Z,100144.72
2022-09-07T08:13:14.313Z,100138.75
2022-09-07T08:15:44.652Z,100143.31
2022-09-07T08:18:12.845Z,100129.47
2022-09-07T08:20:41.155Z,100145.34
2022-09-07T08:23:08.265Z,100132.38
2022-09-07T08:25:35.715Z,100145.41
2022-09-07T08:28:04.680Z,100136.09
2022-09-07T08:30:45.881Z,100137.75
2022-09-07T08:33:50.312Z,100144.09
2022-09-07T08:36:23.256Z,100142.53
2022-09-07T08:45:30.437Z,100134.19
2022-09-07T08:48:10.880Z,100139.69
2022-09-07T08:50:42.184Z,100150.16
2022-09-07T08:53:17.872Z,100146.72
2022-09-07T08:56:12.247Z,100148.16
2022-09-07T08:58:50.140Z,100145.00
2022-09-07T09:01:31.436Z,100146.53
2022-09-07T09:04:16.010Z,100137.16
2022-09-07T09:06:56.306Z,100130.28
2022-09-07T09:09:55.375Z,100129.22
2022-09-07T09:12:49.131Z,100137.25
2022-09-07T09:18:54.634Z,100136.47
2022-09-07T09:21:37.065Z,100144.97
2022-09-07T09:24:36.849Z,100136.34
2022-09-07T09:27:33.920Z,100125.91
2022-09-07T09:30:26.785Z,100128.56
2022-09-07T09:33:14.023Z,100129.22
2022-09-07T09:38:47.305Z,100112.84
2022-09-07T09:41:21.274Z,100122.50
2022-09-07T09:44:54.577Z,100121.88
2022-09-07T09:47:51.359Z,100126.81
2022-09-07T09:53:43.414Z,100117.56
2022-09-07T09:56:24.355Z,100111.94
2022-09-07T10:06:04.312Z,100102.59
2022-09-07T10:08:37.428Z,100096.91
2022-09-07T10:12:06.685Z,100097.06
2022-09-07T10:14:38.401Z,100089.72
2022-09-07T10:17:27.747Z,100084.16
2022-09-07T10:20:04.940Z,100081.09
2022-09-07T10:22:37.659Z,100073.75
2022-09-07T10:25:30.654Z,100075.91
2022-09-07T10:28:06.466Z,100079.59
2022-09-07T10:31:12.303Z,100075.06
2022-09-07T10:36:57.217Z,100065.91
2022-09-07T10:39:26.872Z,100065.81
2022-09-07T10:42:07.384Z,100068.00
2022-09-07T10:45:02.290Z,100065.44
2022-09-07T10:47:52.609Z,100057.59
2022-09-07T10:50:51.679Z,100048.91
2022-09-07T10:54:41.092Z,100053.66
2022-09-07T11:00:27.947Z,100052.81
2022-09-07T11:03:28.663Z,100055.50
2022-09-07T11:06:42.176Z,100050.66
2022-09-07T11:09:33.044Z,100047.00
2022-09-07T11:12:33.320Z,100055.22
2022-09-07T11:19:35.196Z,100048.19
2022-09-07T11:25:46.927Z,100041.59
2022-09-07T11:28:29.109Z,100045.03
2022-09-07T11:31:11.568Z,100030.50
2022-09-07T11:34:24.242Z,100038.59
2022-09-07T11:37:08.914Z,100025.47
2022-09-07T11:40:06.941Z,100021.72
2022-09-07T11:46:01.789Z,100021.13
2022-09-07T11:48:59.908Z,100012.06
2022-09-07T11:51:54.200Z,100022.28
2022-09-07T11:54:44.826Z,100006.16
2022-09-07T11:57:19.305Z,100010.59
2022-09-07T12:00:07.126Z,100002.16
2022-09-07T12:03:01.172Z,100002.56
2022-09-07T12:09:00.267Z,99994.06
2022-09-07T12:12:17.835Z,99995.16
2022-09-07T12:15:50.348Z,99998.56
2022-09-07T12:18:37.822Z,99991.69
2022-09-07T12:21:45.466Z,99987.56
2022-09-07T12:27:40.625Z,99982.25
2022-09-07T12:30:20.305Z,99983.81
2022-09-07T12:33:22.644Z,99979.34
2022-09-07T12:36:40.587Z,99987.69
2022-09-07T12:39:30.114Z,99976.44
2022-09-07T12:42:33.040Z,99976.63
2022-09-07T12:45:50.988Z,99968.47
2022-09-07T12:48:52.568Z,99976.28
2022-09-07T12:52:11.270Z,99972.66
2022-09-07T12:55:28.269Z,99963.13
2022-09-07T12:58:32.338Z,99960.47
2022-09-07T13:01:35.574Z,99961.44
2022-09-07T13:04:23.098Z,99952.84
2022-09-07T13:07:06.353Z,99952.53
2022-09-07T13:09:40.325Z,99952.69
2022-09-07T13:15:35.942Z,99957.81
2022-09-07T13:18:35.005Z,99951.28
2022-09-07T13:21:13.501Z,99948.97
2022-09-07T13:27:11.993Z,99947.75
2022-09-07T13:29:43.106Z,99948.53
2022-09-07T13:32:15.829Z,99939.44
2022-09-07T13:34:49.496Z,99941.78
2022-09-07T13:37:18.975Z,99932.56
2022-09-07T13:39:49.606Z,99935.53
2022-09-07T13:42:17.830Z,99927.25
2022-09-07T13:44:52.179Z,99921.59
2022-09-07T13:47:25.842Z,99934.31
2022-09-07T13:50:00.814Z,99935.25
2022-09-07T13:52:47.316Z,99926.31
2022-09-07T13:55:32.977Z,99934.81
2022-09-07T13:58:20.257Z,99931.03
2022-09-07T14:00:54.950Z,99927.09
2022-09-07T14:03:25.863Z,99919.47
2022-09-07T14:06:11.065Z,99928.88
2022-09-07T14:08:39.881Z,99925.13
2022-09-07T14:11:23.954Z,99925.88
2022-09-07T14:14:06.436Z,99929.16
2022-09-07T14:16:33.933Z,99932.41
2022-09-07T14:19:01.187Z,99934.03
2022-09-07T14:21:28.269Z,99926.50
2022-09-07T14:23:58.694Z,99931.97
2022-09-07T14:26:26.610Z,99927.44
2022-09-07T14:28:56.534Z,99928.06
2022-09-07T14:31:24.506Z,99913.69
2022-09-07T14:33:59.185Z,99918.06
2022-09-07T14:36:48.242Z,99912.91
2022-09-07T14:39:16.893Z,99915.22
2022-09-07T14:41:44.342Z,99924.94
2022-09-07T14:44:30.792Z,99920.91
2022-09-07T14:46:59.833Z,99916.97
2022-09-07T14:49:26.828Z,99916.69
2022-09-07T14:51:54.395Z,99922.78
2022-09-07T14:54:25.239Z,99909.28
2022-09-07T14:57:02.442Z,99914.16
2022-09-07T14:59:37.055Z,99918.22
2022-09-07T15:02:24.165Z,99925.41
2022-09-07T15:05:10.037Z,99934.47
2022-09-07T15:07:41.035Z,99930.44
2022-09-07T15:10:23.842Z,99923.38
2022-09-07T15:12:54.774Z,99924.66
2022-09-07T15:15:27.329Z,99921.84
2022-09-07T15:17:55.230Z,99921.06
2022-09-07T15:20:41.258Z,99929.50
2022-09-07T15:23:10.817Z,99920.91
2022-09-07T15:25:40.875Z,99916.19
2022-09-07T15:28:08.167Z,99920.91
2022-09-07T15:30:35.548Z,99931.69
2022-09-07T15:33:04.326Z,99939.16
2022-09-07T15:35:31.311Z,99940.59
2022-09-07T15:38:02.351Z,99930.56
2022-09-07T15:40:36.093Z,99925.41
2022-09-07T15:43:13.671Z,99919.94
2022-09-07T15:45:51.614Z,99918.16
2022-09-07T15:48:20.999Z,99909.56
2022-09-07T15:50:48.533Z,99913.91
2022-09-07T15:56:04.268Z,99904.06
2022-09-07T15:58:31.743Z,99895.91
2022-09-07T16:03:55.333Z,99896.47
2022-09-07T16:06:22.957Z,99882.84
2022-09-07T16:08:53.238Z,99878.47
2022-09-07T16:11:24.240Z,99888.47
2022-09-07T16:14:02.039Z,99884.34
2022-09-07T16:19:20.613Z,99886.78
2022-09-07T16:21:48.012Z,99884.25
2022-09-07T16:24:17.428Z,99880.31
2022-09-07T16:26:45.238Z,99871.72
2022-09-07T16:29:12.225Z,99870.28
2022-09-07T16:32:43.930Z,99864.28
2022-09-07T16:34:28.039Z,99867.09
2022-09-07T16:36:57.914Z,99862.97
2022-09-07T16:39:24.980Z,99859.66
2022-09-07T16:41:52.623Z,99862.44
2022-09-07T16:44:19.587Z,99851.19
2022-09-07T16:46:46.554Z,99846.75
2022-09-07T16:49:13.816Z,99841.28
2022-09-07T16:51:40.703Z,99836.09
2022-09-07T16:54:08.395Z,99831.69
2022-09-07T16:56:39.226Z,99825.41
2022-09-07T16:59:07.006Z,99830.53
2022-09-07T17:01:34.726Z,99827.97
2022-09-07T17:04:04.499Z,99827.81
2022-09-07T17:06:35.438Z,99823.69
2022-09-07T17:09:02.596Z,99816.66
2022-09-07T17:11:30.882Z,99806.44
2022-09-07T17:13:58.439Z,99797.00
2022-09-07T17:16:30.036Z,99798.41
2022-09-07T17:21:50.220Z,99812.56
2022-09-07T17:24:17.240Z,99822.69
2022-09-07T17:26:46.309Z,99825.59
2022-09-07T17:29:13.566Z,99830.25
2022-09-07T17:34:31.027Z,99830.75
2022-09-07T17:36:57.901Z,99839.88
2022-09-07T17:39:24.739Z,99855.59
2022-09-07T17:41:53.091Z,99855.19
2022-09-07T17:44:21.089Z,99862.47
2022-09-07T17:46:47.936Z,99861.75
2022-09-07T17:49:16.809Z,99867.16
2022-09-07T17:51:44.576Z,99872.03
2022-09-07T17:54:13.565Z,99869.50
2022-09-07T17:56:41.267Z,99872.19
2022-09-07T18:01:55.842Z,99867.59
2022-09-07T18:04:23.241Z,99869.25
2022-09-07T18:06:50.443Z,99873.25
2022-09-07T18:09:17.762Z,99884.16
2022-09-07T18:11:46.276Z,99871.16
2022-09-07T18:14:14.825Z,99870.38
2022-09-07T18:16:43.011Z,99865.69
2022-09-07T18:19:12.663Z,99861.44
2022-09-07T18:21:43.285Z,99858.31
2022-09-07T18:24:13.623Z,99857.84
2022-09-07T18:26:41.386Z,99855.75
2022-09-07T18:29:25.946Z,99864.25
2022-09-07T18:31:55.575Z,99862.22
2022-09-07T18:34:22.861Z,99874.41
2022-09-07T18:36:49.882Z,99871.69
2022-09-07T18:39:16.996Z,99872.31
2022-09-07T18:41:44.241Z,99870.78
2022-09-07T18:46:58.427Z,99877.47
2022-09-07T18:49:25.427Z,99872.75
2022-09-07T18:54:43.591Z,99872.13
2022-09-07T18:57:11.342Z,99873.44
2022-09-07T18:59:38.465Z,99873.53
2022-09-07T19:02:08.176Z,99869.31
2022-09-07T19:07:47.489Z,99872.25
2022-09-07T19:10:16.821Z,99873.00
2022-09-07T19:12:46.762Z,99868.31
2022-09-07T19:15:14.218Z,99869.66
2022-09-07T19:17:41.107Z,99868.88
2022-09-07T19:20:08.119Z,99872.56
2022-09-07T19:22:35.504Z,99874.72
2022-09-07T19:25:02.547Z,99883.72
2022-09-07T19:27:32.879Z,99876.38
2022-09-07T19:30:01.263Z,99881.91
2022-09-07T19:32:28.473Z,99870.34
2022-09-07T19:34:55.572Z,99868.59
2022-09-07T19:37:26.220Z,99866.75
2022-09-07T19:39:57.015Z,99866.56
2022-09-07T19:42:25.042Z,99860.22
2022-09-07T19:44:52.596Z,99858.44
2022-09-07T19:47:19.475Z,99858.25
2022-09-07T19:49:46.583Z,99846.63
2022-09-07T19:52:13.435Z,99852.50
2022-09-07T19:54:40.746Z,99863.63
2022-09-07T19:57:07.819Z,99852.59
2022-09-07T19:59:35.540Z,99851.88
2022-09-07T20:02:02.469Z,99854.84
2022-09-07T20:04:29.690Z,99856.19
2022-09-07T20:06:57.041Z,99852.25
2022-09-07T20:09:24.031Z,99855.44
2022-09-07T20:11:53.541Z,99855.25
2022-09-07T20:14:20.678Z,99853.94
2022-09-07T20:16:47.583Z,99858.16
2022-09-07T20:19:15.240Z,99851.88
2022-09-07T20:21:42.557Z,99858.00
2022-09-07T20:24:11.639Z,99854.91
2022-09-07T20:26:39.078Z,99850.72
2022-09-07T20:29:26.179Z,99842.84
2022-09-07T20:31:54.118Z,99848.94
2022-09-07T20:34:21.183Z,99848.75
2022-09-07T20:36:52.012Z,99837.19
2022-09-07T20:39:19.784Z,99845.38
2022-09-07T20:41:47.069Z,99842.75
2022-09-07T20:44:14.308Z,99841.19
2022-09-07T20:47:05.970Z,99843.88
2022-09-07T20:49:33.217Z,99843.34
2022-09-07T20:52:00.549Z,99838.63
2022-09-07T20:54:27.878Z,99834.97
2022-09-07T20:56:54.731Z,99837.13
2022-09-07T20:59:21.896Z,99837.63
2022-09-07T21:01:49.514Z,99841.06
2022-09-07T21:04:16.401Z,99841.34
2022-09-07T21:06:43.497Z,99840.31
2022-09-07T21:09:10.724Z,99834.53
2022-09-07T21:11:37.491Z,99839.78
2022-09-07T21:14:07.404Z,99846.13
2022-09-07T21:16:35.132Z,99842.44
2022-09-07T21:19:02.814Z,99846.66
2022-09-07T21:21:36.590Z,99835.13
2022-09-07T21:24:05.875Z,99836.47
2022-09-07T21:26:32.835Z,99834.63
2022-09-07T21:29:00.822Z,99840.47
2022-09-07T21:31:29.508Z,99839.97
2022-09-07T21:33:57.568Z,99841.81
2022-09-07T21:36:24.858Z,99839.97
2022-09-07T21:38:52.264Z,99845.50
2022-09-07T21:41:20.050Z,99846.06
2022-09-07T21:43:46.830Z,99837.88
2022-09-07T21:46:15.821Z,99831.84
2022-09-07T21:48:42.837Z,99831.53
2022-09-07T21:51:10.659Z,99827.34
2022-09-07T21:53:38.916Z,99829.69
2022-09-07T21:56:13.243Z,99824.16
2022-09-07T21:58:40.685Z,99818.09
2022-09-07T22:01:17.028Z,99827.84
2022-09-07T22:03:45.491Z,99821.00
2022-09-07T22:06:12.449Z,99817.31
2022-09-07T22:08:40.347Z,99815.72
2022-09-07T22:11:12.450Z,99812.31
2022-09-07T22:13:39.514Z,99818.34
2022-09-07T22:16:06.901Z,99803.63
2022-09-07T22:18:34.666Z,99802.59
2022-09-07T22:21:02.591Z,99792.84
2022-09-07T22:23:30.173Z,99791.28
2022-09-07T22:25:57.372Z,99788.13
2022-09-07T22:28:24.148Z,99783.94
2022-09-07T22:30:51.067Z,99782.34
2022-09-07T22:33:18.199Z,99783.69
2022-09-07T22:35:45.405Z,99780.50
2022-09-07T22:38:12.262Z,99779.22
2022-09-07T22:40:39.345Z,99782.66
2022-09-07T22:43:07.072Z,99768.94
2022-09-07T22:45:33.898Z,99769.25
2022-09-07T22:48:01.623Z,99775.03
2022-09-07T22:50:31.897Z,99772.47
2022-09-07T22:52:58.930Z,99767.44
2022-09-07T22:55:25.979Z,99763.75
2022-09-07T22:57:52.726Z,99759.84
2022-09-07T23:00:19.530Z,99761.69
2022-09-07T23:02:47.213Z,99764.34
2022-09-07T23:05:14.510Z,99758.56
2022-09-07T23:07:41.330Z,99756.47
2022-09-07T23:10:09.194Z,99757.56
2022-09-07T23:12:37.929Z,99754.41
2022-09-07T23:15:05.208Z,99752.56
2022-09-07T23:17:32.379Z,99756.25
2022-09-07T23:19:59.218Z,99752.84
2022-09-07T23:22:25.961Z,99748.09
2022-09-07T23:24:53.042Z,99735.75
2022-09-07T23:27:19.839Z,99734.47
2022-09-07T23:29:47.272Z,99728.66
2022-09-07T23:32:14.678Z,99733.13
2022-09-07T23:34:41.437Z,99735.75
2022-09-07T23:37:08.278Z,99731.28
2022-09-07T23:39:35.393Z,99735.75
2022-09-07T23:42:02.230Z,99733.41
2022-09-07T23:44:29.306Z,99737.34
2022-09-07T23:46:56.979Z,99726.56
2022-09-07T23:49:24.513Z,99726.03
2022-09-07T23:51:52.633Z,99724.72
2022-09-07T23:54:19.832Z,99719.19
2022-09-07T23:56:53.667Z,99718.66
2022-09-07T23:59:27.151Z,99711.81
